Time;durP1;ratioP1;P1;durP2;ratioP2;P2;SDS_P1;SDS_P2;PMS_P1;PMS_P2;Temp;Humidity;BMP_temperature;BMP_pressure;BME280_temperature;BME280_humidity;BME280_pressure;Samples;Min_cycle;Max_cycle;Signal;HPM_P1;HPM_P2
2022/05/11 00:01:21;;;;;;;9.38;6.65;;;;;;;-140.79;100.00;63287.88;5054044;28;20407;-56
2022/05/11 00:03:46;;;;;;;9.40;6.30;;;;;;;-140.79;100.00;63287.88;5061016;28;20028;-56
2022/05/11 00:06:11;;;;;;;10.00;6.30;;;;;;;-140.79;100.00;63287.88;5059062;28;20032;-55
2022/05/11 00:08:37;;;;;;;9.00;6.85;;;;;;;-140.79;100.00;63287.88;5057192;28;20102;-57
2022/05/11 00:11:04;;;;;;;7.28;5.53;;;;;;;-140.79;100.00;63287.88;5058497;28;20017;-54
2022/05/11 00:13:30;;;;;;;10.23;6.38;;;;;;;-140.79;100.00;63287.88;5058663;28;20036;-56
2022/05/11 00:15:55;;;;;;;8.82;6.32;;;;;;;-140.79;100.00;63287.88;5042480;28;20009;-56
2022/05/11 00:18:21;;;;;;;9.02;6.25;;;;;;;-140.79;100.00;63287.88;5052126;28;20029;-56
2022/05/11 00:20:46;;;;;;;8.25;5.80;;;;;;;-140.79;100.00;63287.88;5056919;28;20023;-56
2022/05/11 00:23:11;;;;;;;8.35;5.97;;;;;;;-140.79;100.00;63287.88;5064293;28;20372;-56
2022/05/11 00:25:37;;;;;;;7.85;5.72;;;;;;;-140.79;100.00;63287.88;5041518;28;20024;-55
2022/05/11 00:28:02;;;;;;;8.05;5.53;;;;;;;-140.79;100.00;63287.88;5061324;28;20044;-56
2022/05/11 00:30:29;;;;;;;7.93;5.72;;;;;;;-140.79;100.00;63287.88;5062543;28;20141;-57
2022/05/11 00:32:56;;;;;;;7.40;5.70;;;;;;;-140.79;100.00;63287.88;5053853;28;20123;-56
2022/05/11 00:35:22;;;;;;;7.75;6.03;;;;;;;-140.79;100.00;63287.88;5063993;28;20040;-55
2022/05/11 00:37:48;;;;;;;6.93;5.70;;;;;;;-140.79;100.00;63287.88;5061959;28;20032;-56
2022/05/11 00:40:13;;;;;;;8.43;5.85;;;;;;;-140.79;100.00;63287.88;5044091;28;20028;-56
2022/05/11 00:42:39;;;;;;;8.50;5.75;;;;;;;-140.79;100.00;63287.88;5061704;28;20032;-57
2022/05/11 00:45:05;;;;;;;8.63;5.85;;;;;;;-140.79;100.00;63287.88;5060971;28;20020;-55
2022/05/11 00:47:45;;;;;;;8.07;5.43;;;;;;;-140.79;100.00;63287.88;5059246;28;20051;-56
2022/05/11 00:50:14;;;;;;;8.32;5.47;;;;;;;-140.79;100.00;63287.88;5059442;28;20032;-55
2022/05/11 00:52:49;;;;;;;6.95;5.20;;;;;;;-140.79;100.00;63287.88;5058113;28;20100;-56
2022/05/11 00:55:21;;;;;;;7.82;5.60;;;;;;;-140.79;100.00;63287.88;5059940;28;20114;-56
2022/05/11 00:57:57;;;;;;;7.00;5.10;;;;;;;-140.79;100.00;63287.88;5046110;28;20037;-56
2022/05/11 01:00:23;;;;;;;7.10;5.20;;;;;;;-140.79;100.00;63287.88;5060164;28;20043;-56
2022/05/11 01:02:57;;;;;;;6.68;5.00;;;;;;;-140.79;100.00;63287.88;5056385;28;20029;-56
2022/05/11 01:05:23;;;;;;;7.20;5.15;;;;;;;-140.79;100.00;63287.88;5062812;28;20482;-56
2022/05/11 01:07:50;;;;;;;7.50;5.53;;;;;;;-140.79;100.00;63287.88;5064266;28;20032;-55
2022/05/11 01:10:15;;;;;;;8.27;5.00;;;;;;;-140.79;100.00;63287.88;5029434;28;20632;-55
2022/05/11 01:12:42;;;;;;;6.35;5.03;;;;;;;-140.79;100.00;63287.88;5043320;28;20021;-56
2022/05/11 01:15:10;;;;;;;8.52;5.10;;;;;;;-140.79;100.00;63287.88;5029464;28;20029;-57
2022/05/11 01:17:36;;;;;;;6.47;4.78;;;;;;;-140.79;100.00;63287.88;5039166;28;20121;-55
2022/05/11 01:20:02;;;;;;;6.45;4.95;;;;;;;-140.79;100.00;63287.88;5057228;28;20035;-55
2022/05/11 01:22:35;;;;;;;6.95;5.00;;;;;;;-140.79;100.00;63287.88;5039408;28;20039;-55
2022/05/11 01:25:01;;;;;;;7.35;5.30;;;;;;;-140.79;100.00;63287.88;5045946;28;20186;-57
2022/05/11 01:27:31;;;;;;;6.55;5.05;;;;;;;-140.79;100.00;63287.88;5041778;28;20052;-55
2022/05/11 01:30:02;;;;;;;;;;;;;;;-140.79;100.00;63287.88;5023705;28;20026;-57
2022/05/11 01:32:28;;;;;;;6.10;4.50;;;;;;;-140.79;100.00;63287.88;5038597;28;19954;-56
2022/05/11 01:35:10;;;;;;;6.80;4.60;;;;;;;-140.79;100.00;63287.88;5041136;28;20912;-55
2022/05/11 01:37:37;;;;;;;7.35;4.70;;;;;;;-140.79;100.00;63287.88;5030814;28;20098;-56
2022/05/11 01:40:04;;;;;;;6.43;4.70;;;;;;;-140.79;100.00;63287.88;5040349;28;20017;-56
2022/05/11 01:42:29;;;;;;;6.93;4.72;;;;;;;-140.79;100.00;63287.88;5042577;28;20075;-54
2022/05/11 01:44:54;;;;;;;5.80;4.47;;;;;;;-140.79;100.00;63287.88;5041475;28;20032;-55
2022/05/11 01:47:20;;;;;;;6.03;4.40;;;;;;;-140.79;100.00;63287.88;5040709;28;20103;-57
2022/05/11 01:49:45;;;;;;;6.45;4.60;;;;;;;-140.79;100.00;63287.88;5037268;28;20689;-57
2022/05/11 01:52:11;;;;;;;6.30;4.30;;;;;;;-140.79;100.00;63287.88;5041680;28;20094;-56
2022/05/11 01:54:36;;;;;;;6.07;4.35;;;;;;;-140.79;100.00;63287.88;5041769;28;20029;-57
2022/05/11 01:57:02;;;;;;;5.40;4.03;;;;;;;-140.79;100.00;63287.88;5038922;28;20497;-56
2022/05/11 01:59:27;;;;;;;6.13;4.40;;;;;;;-140.79;100.00;63287.88;5040669;28;20071;-56
2022/05/11 02:01:54;;;;;;;5.63;4.28;;;;;;;-140.79;100.00;63287.88;5042176;28;20598;-57
2022/05/11 02:09:48;;;;;;;7.10;4.38;;;;;;;-140.79;100.00;63287.88;5039719;28;20040;-57
2022/05/11 02:12:13;;;;;;;5.45;3.90;;;;;;;-140.79;100.00;63287.88;5022928;28;20056;-56
2022/05/11 02:14:39;;;;;;;6.80;4.30;;;;;;;-140.79;100.00;63287.88;5041998;28;20029;-55
2022/05/11 02:17:05;;;;;;;5.32;4.10;;;;;;;-140.79;100.00;63287.88;5039619;28;20025;-56
2022/05/11 02:19:30;;;;;;;6.15;4.10;;;;;;;-140.79;100.00;63287.88;5036887;28;20082;-56
2022/05/11 02:21:55;;;;;;;5.47;4.15;;;;;;;-140.79;100.00;63287.88;5042133;28;20033;-56
2022/05/11 02:24:21;;;;;;;5.43;4.25;;;;;;;-140.79;100.00;63287.88;5042142;28;20040;-59
2022/05/11 02:26:47;;;;;;;5.75;4.20;;;;;;;-140.79;100.00;63287.88;5046962;28;20894;-55
2022/05/11 02:29:13;;;;;;;6.10;3.78;;;;;;;-140.79;100.00;63287.88;5061473;28;20025;-56
2022/05/11 02:31:38;;;;;;;5.13;3.80;;;;;;;-140.79;100.00;63287.88;5059003;28;20411;-57
2022/05/11 02:34:06;;;;;;;4.88;4.07;;;;;;;-140.79;100.00;63287.88;5060554;28;20449;-56
2022/05/11 02:36:32;;;;;;;5.40;3.83;;;;;;;-140.79;100.00;63287.88;5059353;28;20036;-56
2022/05/11 02:38:58;;;;;;;5.63;4.47;;;;;;;-140.79;100.00;63287.88;5059992;28;20029;-58
2022/05/11 02:41:23;;;;;;;5.20;3.88;;;;;;;-140.79;100.00;63287.88;5058476;28;20036;-55
2022/05/11 02:43:49;;;;;;;5.18;3.85;;;;;;;-140.79;100.00;63287.88;5059122;28;20415;-56
2022/05/11 02:46:14;;;;;;;4.95;3.78;;;;;;;-140.79;100.00;63287.88;5057446;28;20032;-56
2022/05/11 02:48:40;;;;;;;5.20;3.83;;;;;;;-140.79;100.00;63287.88;5057939;28;20077;-56
2022/05/11 02:51:06;;;;;;;5.50;3.65;;;;;;;-140.79;100.00;63287.88;5059236;28;20040;-56
2022/05/11 02:53:32;;;;;;;5.60;3.75;;;;;;;-140.79;100.00;63287.88;5063549;28;20029;-56
2022/05/11 02:55:57;;;;;;;4.75;3.38;;;;;;;-140.79;100.00;63287.88;5060356;28;20030;-56
2022/05/11 02:58:26;;;;;;;4.47;3.78;;;;;;;-140.79;100.00;63287.88;5060117;28;20024;-56
2022/05/11 03:00:52;;;;;;;4.82;3.83;;;;;;;-140.79;100.00;63287.88;5056185;28;20020;-56
2022/05/11 03:03:18;;;;;;;4.50;3.58;;;;;;;-140.79;100.00;63287.88;5024066;28;20024;-55
2022/05/11 03:05:43;;;;;;;4.55;3.65;;;;;;;-140.79;100.00;63287.88;5061918;28;20059;-57
2022/05/11 03:08:09;;;;;;;4.50;3.50;;;;;;;-140.79;100.00;63287.88;5063902;28;20036;-55
2022/05/11 03:10:35;;;;;;;4.80;3.50;;;;;;;-140.79;100.00;63287.88;5060210;28;20017;-57
2022/05/11 03:13:02;;;;;;;5.07;3.33;;;;;;;-140.79;100.00;63287.88;5055849;28;20021;-56
2022/05/11 03:15:28;;;;;;;4.25;3.38;;;;;;;-140.79;100.00;63287.88;5058829;28;20039;-55
2022/05/11 03:17:54;;;;;;;4.78;3.60;;;;;;;-140.79;100.00;63287.88;5059014;28;20029;-56
2022/05/11 03:20:22;;;;;;;3.92;3.38;;;;;;;-140.79;100.00;63287.88;5063647;28;20029;-56
2022/05/11 03:22:49;;;;;;;4.88;3.42;;;;;;;-140.79;100.00;63287.88;5061425;28;20056;-56
2022/05/11 03:25:14;;;;;;;4.75;3.40;;;;;;;-140.79;100.00;63287.88;5060832;28;20036;-57
2022/05/11 03:27:39;;;;;;;4.20;3.35;;;;;;;-140.79;100.00;63287.88;5050894;28;20285;-56
2022/05/11 03:30:06;;;;;;;4.60;3.35;;;;;;;-140.79;100.00;63287.88;5057176;28;20127;-56
2022/05/11 03:35:15;;;;;;;4.72;3.45;;;;;;;-140.79;100.00;63287.88;5061300;28;20144;-56
2022/05/11 03:37:41;;;;;;;4.45;3.03;;;;;;;-140.79;100.00;63287.88;5057208;28;20029;-55
2022/05/11 03:40:07;;;;;;;3.50;2.85;;;;;;;-140.79;100.00;63287.88;5058968;28;20032;-56
2022/05/11 03:42:33;;;;;;;3.97;3.17;;;;;;;-140.79;100.00;63287.88;5058546;28;20021;-55
2022/05/11 03:45:12;;;;;;;4.25;3.10;;;;;;;-140.79;100.00;63287.88;5061339;28;20089;-56
2022/05/11 03:47:38;;;;;;;4.40;3.10;;;;;;;-140.79;100.00;63287.88;5058451;28;20473;-58
2022/05/11 03:50:04;;;;;;;3.45;2.80;;;;;;;-140.79;100.00;63287.88;5063250;28;20028;-56
2022/05/11 03:52:30;;;;;;;3.78;3.00;;;;;;;-140.79;100.00;63287.88;5059467;28;20407;-56
2022/05/11 03:54:55;;;;;;;4.03;2.92;;;;;;;-140.79;100.00;63287.88;5061997;28;20009;-56
2022/05/11 03:57:21;;;;;;;3.78;2.88;;;;;;;-140.79;100.00;63287.88;5061339;28;20097;-56
2022/05/11 03:59:46;;;;;;;4.10;3.05;;;;;;;-140.79;100.00;63287.88;5062173;28;20558;-55
2022/05/11 04:02:12;;;;;;;4.80;3.05;;;;;;;-140.79;100.00;63287.88;5062401;28;20100;-57
2022/05/11 04:04:37;;;;;;;3.55;2.70;;;;;;;-140.79;100.00;63287.88;5067005;28;20024;-56
2022/05/11 04:07:03;;;;;;;4.10;3.30;;;;;;;-140.79;100.00;63287.88;5062114;28;20025;-56
2022/05/11 04:09:28;;;;;;;4.22;3.03;;;;;;;-140.79;100.00;63287.88;5061599;28;20074;-55
2022/05/11 04:11:54;;;;;;;4.13;3.00;;;;;;;-140.79;100.00;63287.88;5062120;28;20645;-53
2022/05/11 04:14:19;;;;;;;4.55;3.05;;;;;;;-140.79;100.00;63287.88;5061118;28;20024;-54
2022/05/11 04:16:45;;;;;;;4.07;2.83;;;;;;;-140.79;100.00;63287.88;5059893;28;20020;-55
2022/05/11 04:19:10;;;;;;;4.20;2.80;;;;;;;-140.79;100.00;63287.88;5063601;28;20035;-56
2022/05/11 04:21:36;;;;;;;4.68;2.70;;;;;;;-140.79;100.00;63287.88;5063282;28;20561;-56
2022/05/11 04:24:01;;;;;;;4.63;3.03;;;;;;;-140.79;100.00;63287.88;5062100;28;20020;-54
2022/05/11 04:26:30;;;;;;;4.25;3.22;;;;;;;-140.79;100.00;63287.88;5061590;28;20048;-55
2022/05/11 04:28:56;;;;;;;4.13;2.75;;;;;;;-140.79;100.00;63287.88;5059859;28;20051;-53
2022/05/11 04:31:21;;;;;;;3.13;2.80;;;;;;;-140.79;100.00;63287.88;5060195;28;20032;-54
2022/05/11 04:33:47;;;;;;;3.75;2.92;;;;;;;-140.79;100.00;63287.88;5059914;28;20016;-56
2022/05/11 04:36:12;;;;;;;3.25;2.78;;;;;;;-140.79;100.00;63287.88;5060111;28;20040;-54
2022/05/11 04:38:38;;;;;;;3.03;2.60;;;;;;;-140.79;100.00;63287.88;5045817;28;20538;-54
2022/05/11 04:41:04;;;;;;;3.80;3.03;;;;;;;-140.79;100.00;63287.88;5066289;28;20109;-56
2022/05/11 04:43:29;;;;;;;3.28;2.55;;;;;;;-140.79;100.00;63287.88;5041490;28;20561;-57
2022/05/11 04:45:55;;;;;;;3.60;2.60;;;;;;;-140.79;100.00;63287.88;5063551;28;20036;-57
2022/05/11 04:48:20;;;;;;;3.50;2.70;;;;;;;-140.79;100.00;63287.88;5040160;28;20017;-57
2022/05/11 04:50:46;;;;;;;4.40;2.83;;;;;;;-140.79;100.00;63287.88;5055092;28;20035;-57
2022/05/11 04:53:14;;;;;;;2.63;2.30;;;;;;;-140.79;100.00;63287.88;5060881;28;20073;-56
2022/05/11 04:55:40;;;;;;;3.25;2.45;;;;;;;-140.79;100.00;63287.88;5062831;28;20454;-57
2022/05/11 04:58:05;;;;;;;4.93;2.72;;;;;;;-140.79;100.00;63287.88;5065682;28;20115;-56
2022/05/11 05:00:32;;;;;;;4.05;2.80;;;;;;;-140.79;100.00;63287.88;5045974;28;20035;-56
2022/05/11 05:02:57;;;;;;;2.85;2.10;;;;;;;-140.79;100.00;63287.88;5062847;28;20024;-57
2022/05/11 05:05:23;;;;;;;5.00;2.45;;;;;;;-140.79;100.00;63287.88;5062661;28;20118;-56
2022/05/11 05:07:48;;;;;;;3.50;2.60;;;;;;;-140.79;100.00;63287.88;5059667;28;20033;-55
2022/05/11 05:10:14;;;;;;;3.88;2.72;;;;;;;-140.79;100.00;63287.88;5061373;28;20028;-56
2022/05/11 05:12:41;;;;;;;3.70;2.60;;;;;;;-140.79;100.00;63287.88;5059375;28;20024;-55
2022/05/11 05:15:07;;;;;;;4.07;2.35;;;;;;;-140.79;100.00;63287.88;5045026;28;20016;-57
2022/05/11 05:17:32;;;;;;;3.75;2.75;;;;;;;-140.79;100.00;63287.88;5056990;28;20017;-56
2022/05/11 05:19:58;;;;;;;3.75;2.22;;;;;;;-140.79;100.00;63287.88;5065079;28;20502;-55
2022/05/11 05:22:23;;;;;;;3.10;2.55;;;;;;;-140.79;100.00;63287.88;5058681;28;20032;-54
2022/05/11 05:24:48;;;;;;;3.85;2.47;;;;;;;-140.79;100.00;63287.88;5060188;28;21032;-54
2022/05/11 05:27:15;;;;;;;3.17;2.38;;;;;;;-140.79;100.00;63287.88;5057241;28;20087;-55
2022/05/11 05:32:25;;;;;;;3.10;2.30;;;;;;;-140.79;100.00;63287.88;5062841;28;20094;-54
2022/05/11 05:34:50;;;;;;;3.53;2.25;;;;;;;-140.79;100.00;63287.88;5056860;28;20469;-54
2022/05/11 05:37:16;;;;;;;3.13;2.53;;;;;;;-140.79;100.00;63287.88;5061185;28;20033;-54
2022/05/11 05:39:42;;;;;;;3.53;2.50;;;;;;;-140.79;100.00;63287.88;5057510;28;20082;-54
2022/05/11 05:42:08;;;;;;;3.25;2.30;;;;;;;-140.79;100.00;63287.88;5064222;28;20483;-55
2022/05/11 05:44:34;;;;;;;3.53;2.30;;;;;;;-140.79;100.00;63287.88;5059521;28;20503;-54
2022/05/11 05:47:06;;;;;;;3.72;2.65;;;;;;;-140.79;100.00;63287.88;5040951;28;20040;-54
2022/05/11 05:49:31;;;;;;;3.05;2.30;;;;;;;-140.79;100.00;63287.88;5058649;28;20099;-55
2022/05/11 05:52:01;;;;;;;3.47;2.10;;;;;;;-140.79;100.00;63287.88;5058391;28;20032;-56
2022/05/11 05:54:34;;;;;;;2.85;2.08;;;;;;;-140.79;100.00;63287.88;5044961;28;20113;-55
2022/05/11 05:56:59;;;;;;;2.80;1.90;;;;;;;-140.79;100.00;63287.88;5045303;28;20021;-56
2022/05/11 05:59:25;;;;;;;2.67;2.03;;;;;;;-140.79;100.00;63287.88;5058237;28;20041;-56
2022/05/11 06:01:51;;;;;;;4.25;2.50;;;;;;;-140.79;100.00;63287.88;5027517;28;20115;-58
2022/05/11 06:04:16;;;;;;;3.05;2.10;;;;;;;-140.79;100.00;63287.88;5060428;28;20040;-57
2022/05/11 06:06:42;;;;;;;4.22;2.47;;;;;;;-140.79;100.00;63287.88;5059088;28;20140;-54
2022/05/11 06:09:09;;;;;;;2.92;2.10;;;;;;;-140.79;100.00;63287.88;5060335;28;20024;-59
2022/05/11 06:11:37;;;;;;;4.45;2.80;;;;;;;-140.79;100.00;63287.88;5064598;28;20024;-57
2022/05/11 06:14:03;;;;;;;3.40;2.58;;;;;;;-140.79;100.00;63287.88;5040223;28;20044;-56
2022/05/11 06:16:29;;;;;;;4.13;2.75;;;;;;;-140.79;100.00;63287.88;5057427;28;20028;-56
2022/05/11 06:18:54;;;;;;;4.30;2.67;;;;;;;-140.79;100.00;63287.88;5040001;28;20032;-57
2022/05/11 06:21:20;;;;;;;4.75;3.00;;;;;;;-140.79;100.00;63287.88;5059411;28;20032;-55
2022/05/11 06:23:45;;;;;;;3.88;2.58;;;;;;;-140.79;100.00;63287.88;5059737;28;20017;-55
2022/05/11 06:26:11;;;;;;;3.58;2.40;;;;;;;-140.79;100.00;63287.88;5058484;28;20055;-56
2022/05/11 06:28:37;;;;;;;4.47;2.80;;;;;;;-140.79;100.00;63287.88;5058616;28;20082;-55
2022/05/11 06:31:02;;;;;;;4.13;2.70;;;;;;;-140.79;100.00;63287.88;5063418;28;20027;-56
2022/05/11 06:33:28;;;;;;;3.10;2.35;;;;;;;-140.79;100.00;63287.88;5042336;28;20072;-56
2022/05/11 06:35:54;;;;;;;3.92;2.60;;;;;;;-140.79;100.00;63287.88;5060604;28;20020;-55
2022/05/11 06:38:19;;;;;;;4.20;2.42;;;;;;;-140.79;100.00;63287.88;5058027;28;20023;-56
2022/05/11 06:40:45;;;;;;;4.07;2.42;;;;;;;-140.79;100.00;63287.88;5061559;28;20617;-56
2022/05/11 06:43:10;;;;;;;3.47;2.53;;;;;;;-140.79;100.00;63287.88;5059166;28;20036;-57
2022/05/11 06:45:36;;;;;;;3.75;2.15;;;;;;;-140.79;100.00;63287.88;5062688;28;20024;-57
2022/05/11 06:48:01;;;;;;;4.35;2.58;;;;;;;-140.79;100.00;63287.88;5057836;28;20411;-56
2022/05/11 06:50:27;;;;;;;4.05;2.83;;;;;;;-140.79;100.00;63287.88;5061870;28;20028;-55
2022/05/11 06:52:53;;;;;;;3.58;2.50;;;;;;;-140.79;100.00;63287.88;5060843;28;20055;-56
2022/05/11 07:00:48;;;;;;;2.90;2.30;;;;;;;-140.79;100.00;63287.88;5060699;28;20106;-55
2022/05/11 07:03:13;;;;;;;3.65;2.50;;;;;;;-140.79;100.00;63287.88;5041665;28;20032;-56
2022/05/11 07:05:39;;;;;;;3.30;2.30;;;;;;;-140.79;100.00;63287.88;5041259;28;20029;-56
2022/05/11 07:08:05;;;;;;;4.03;2.60;;;;;;;-140.79;100.00;63287.88;5040668;28;20024;-56
2022/05/11 07:10:31;;;;;;;4.55;2.85;;;;;;;-140.79;100.00;63287.88;5059559;28;20029;-55
2022/05/11 07:12:57;;;;;;;3.95;2.60;;;;;;;-140.79;100.00;63287.88;5061766;28;20078;-55
2022/05/11 07:15:22;;;;;;;3.25;2.50;;;;;;;-140.79;100.00;63287.88;5061154;28;20032;-60
2022/05/11 07:17:52;;;;;;;5.00;2.90;;;;;;;-140.79;100.00;63287.88;5058167;28;20035;-55
2022/05/11 07:20:21;;;;;;;3.83;2.30;;;;;;;-140.79;100.00;63287.88;5055678;28;20040;-56
2022/05/11 07:22:46;;;;;;;3.72;2.20;;;;;;;-140.79;100.00;63287.88;5057341;28;20649;-55
2022/05/11 07:25:14;;;;;;;3.22;2.60;;;;;;;-140.79;100.00;63287.88;5056132;28;20526;-55
2022/05/11 07:27:39;;;;;;;3.38;2.45;;;;;;;-140.79;100.00;63287.88;5056615;28;20041;-55
2022/05/11 07:30:06;;;;;;;3.92;2.42;;;;;;;-140.79;100.00;63287.88;5042492;28;20025;-55
2022/05/11 07:32:32;;;;;;;3.22;2.35;;;;;;;-140.79;100.00;63287.88;5061615;28;20551;-56
2022/05/11 07:34:57;;;;;;;4.00;2.15;;;;;;;-140.79;100.00;63287.88;5063572;28;20028;-56
2022/05/11 07:37:23;;;;;;;3.53;2.22;;;;;;;-140.79;100.00;63287.88;5062433;28;20035;-55
2022/05/11 07:39:48;;;;;;;3.40;2.47;;;;;;;-140.79;100.00;63287.88;5067253;28;20040;-60
2022/05/11 07:42:14;;;;;;;2.97;2.53;;;;;;;-140.79;100.00;63287.88;5063886;28;20032;-56
2022/05/11 07:44:39;;;;;;;3.63;2.28;;;;;;;-140.79;100.00;63287.88;5064578;28;20024;-55
2022/05/11 07:47:05;;;;;;;3.60;2.50;;;;;;;-140.79;100.00;63287.88;5063211;28;20543;-58
2022/05/11 07:49:30;;;;;;;3.00;2.28;;;;;;;-140.79;100.00;63287.88;5063094;28;20020;-56
2022/05/11 07:51:56;;;;;;;3.78;2.50;;;;;;;-140.79;100.00;63287.88;5062668;28;20020;-55
2022/05/11 07:54:21;;;;;;;3.33;2.40;;;;;;;-140.79;100.00;63287.88;5061864;28;20025;-57
2022/05/11 08:02:15;;;;;;;3.38;2.17;;;;;;;-140.79;100.00;63287.88;5042162;28;20098;-56
2022/05/11 08:04:41;;;;;;;3.97;2.22;;;;;;;-140.79;100.00;63287.88;5053690;28;20013;-56
2022/05/11 08:07:07;;;;;;;3.33;2.30;;;;;;;-140.79;100.00;63287.88;5060961;28;20028;-56
2022/05/11 08:09:33;;;;;;;3.00;2.10;;;;;;;-140.79;100.00;63287.88;5044820;28;20028;-56
2022/05/11 08:11:58;;;;;;;3.80;2.33;;;;;;;-140.79;100.00;63287.88;5042349;28;20031;-54
2022/05/11 08:14:24;;;;;;;2.58;2.05;;;;;;;-140.79;100.00;63287.88;5067533;28;20426;-57
2022/05/11 08:16:52;;;;;;;3.78;2.53;;;;;;;-140.79;100.00;63287.88;5061513;28;20102;-55
2022/05/11 08:19:21;;;;;;;3.60;2.38;;;;;;;-140.79;100.00;63287.88;5061986;28;20044;-55
2022/05/11 08:21:48;;;;;;;4.60;2.40;;;;;;;-140.79;100.00;63287.88;5044966;28;20035;-55
2022/05/11 08:24:13;;;;;;;4.28;2.55;;;;;;;-140.79;100.00;63287.88;5044139;28;20024;-56
2022/05/11 08:26:41;;;;;;;3.42;2.25;;;;;;;-140.79;100.00;63287.88;5061070;28;20052;-56
2022/05/11 08:29:07;;;;;;;4.18;2.45;;;;;;;-140.79;100.00;63287.88;5062533;28;20105;-54
2022/05/11 08:34:16;;;;;;;3.80;2.40;;;;;;;-140.79;100.00;63287.88;5065011;28;20043;-56
2022/05/11 08:36:42;;;;;;;2.60;2.33;;;;;;;-140.79;100.00;63287.88;5061496;28;20029;-55
2022/05/11 08:39:07;;;;;;;3.65;2.55;;;;;;;-140.79;100.00;63287.88;5059901;28;20032;-56
2022/05/11 08:41:36;;;;;;;3.42;2.38;;;;;;;-140.79;100.00;63287.88;5056005;28;20028;-56
2022/05/11 08:44:03;;;;;;;3.28;2.28;;;;;;;-140.79;100.00;63287.88;5056741;28;20033;-56
2022/05/11 08:46:47;;;;;;;4.07;2.30;;;;;;;-140.79;100.00;63287.88;5039835;28;20021;-55
2022/05/11 08:49:25;;;;;;;3.55;2.20;;;;;;;-140.79;100.00;63287.88;5043713;28;20116;-56
2022/05/11 08:52:00;;;;;;;3.03;2.35;;;;;;;-140.79;100.00;63287.88;5045079;28;20029;-56
2022/05/11 08:54:46;;;;;;;3.28;2.13;;;;;;;-140.79;100.00;63287.88;5065076;28;20431;-55
2022/05/11 08:57:23;;;;;;;4.07;2.20;;;;;;;-140.79;100.00;63287.88;5041036;28;20115;-55
2022/05/11 08:59:56;;;;;;;3.30;2.28;;;;;;;-140.79;100.00;63287.88;5030120;28;20545;-64
2022/05/11 09:02:24;;;;;;;3.38;2.65;;;;;;;-140.79;100.00;63287.88;5021948;28;20058;-55
2022/05/11 09:04:54;;;;;;;5.35;2.30;;;;;;;-140.79;100.00;63287.88;5044724;28;20029;-55
2022/05/11 09:07:19;;;;;;;4.03;2.40;;;;;;;-140.79;100.00;63287.88;5045165;28;20037;-55
2022/05/11 09:09:45;;;;;;;3.78;2.40;;;;;;;-140.79;100.00;63287.88;5047067;28;20040;-56
2022/05/11 09:12:11;;;;;;;3.67;2.30;;;;;;;-140.79;100.00;63287.88;5061995;28;20031;-56
2022/05/11 09:14:40;;;;;;;3.72;2.15;;;;;;;-140.79;100.00;63287.88;5030396;28;20016;-55
2022/05/11 09:17:19;;;;;;;3.25;1.88;;;;;;;-140.79;100.00;63287.88;5035613;28;20051;-55
2022/05/11 09:19:45;;;;;;;3.75;2.10;;;;;;;-140.79;100.00;63287.88;5032049;28;20040;-55
2022/05/11 09:22:17;;;;;;;3.53;2.20;;;;;;;-140.79;100.00;63287.88;5027083;28;20037;-55
2022/05/11 09:24:56;;;;;;;3.67;2.35;;;;;;;-140.79;100.00;63287.88;5045043;28;20186;-55
2022/05/11 09:27:27;;;;;;;3.00;2.42;;;;;;;-140.79;100.00;63287.88;5023539;28;20489;-55
2022/05/11 09:30:06;;;;;;;3.50;2.35;;;;;;;-140.79;100.00;63287.88;5042216;28;20033;-55
2022/05/11 09:32:44;;;;;;;3.67;2.08;;;;;;;-140.79;100.00;63287.88;5041561;28;20084;-56
2022/05/11 09:35:39;;;;;;;3.35;2.25;;;;;;;-140.79;100.00;63287.88;5044014;28;20037;-55
2022/05/11 09:38:07;;;;;;;3.83;2.40;;;;;;;-140.79;100.00;63287.88;5040186;28;20044;-55
2022/05/11 09:40:54;;;;;;;4.03;2.25;;;;;;;-140.79;100.00;63287.88;5040312;28;20037;-55
2022/05/11 09:43:35;;;;;;;3.15;1.92;;;;;;;-140.79;100.00;63287.88;5040377;28;20504;-55
2022/05/11 09:46:21;;;;;;;2.97;2.30;;;;;;;-140.79;100.00;63287.88;5037442;28;20017;-56
2022/05/11 09:48:57;;;;;;;2.47;2.10;;;;;;;-140.79;100.00;63287.88;5041241;28;20040;-55
2022/05/11 09:51:35;;;;;;;4.22;2.00;;;;;;;-140.79;100.00;63287.88;5037531;28;20267;-56
2022/05/11 09:54:13;;;;;;;4.05;2.15;;;;;;;-140.79;100.00;63287.88;5038720;28;20032;-56
2022/05/11 09:56:39;;;;;;;3.03;2.10;;;;;;;-140.79;100.00;63287.88;5032087;28;20099;-57
2022/05/11 09:59:34;;;;;;;2.90;1.95;;;;;;;-140.79;100.00;63287.88;5011127;28;20030;-55
2022/05/11 10:02:02;;;;;;;2.50;2.05;;;;;;;-140.79;100.00;63287.88;5046134;28;20028;-55
2022/05/11 10:04:35;;;;;;;4.53;2.35;;;;;;;-140.79;100.00;63287.88;5038906;28;20025;-58
2022/05/11 10:07:00;;;;;;;3.17;2.10;;;;;;;-140.79;100.00;63287.88;5037992;28;20474;-56
2022/05/11 10:09:31;;;;;;;4.32;2.30;;;;;;;-140.79;100.00;63287.88;5036678;28;20075;-55
2022/05/11 10:11:57;;;;;;;5.22;2.05;;;;;;;-140.79;100.00;63287.88;5021002;28;20021;-57
2022/05/11 10:22:42;;;;;;;4.47;2.10;;;;;;;-140.79;100.00;63287.88;5041184;28;20044;-54
2022/05/11 10:25:13;;;;;;;3.60;1.98;;;;;;;-140.79;100.00;63287.88;5040583;28;20029;-55
2022/05/11 10:27:49;;;;;;;1.92;1.80;;;;;;;-140.79;100.00;63287.88;5054832;28;20056;-55
2022/05/11 10:30:22;;;;;;;3.30;1.90;;;;;;;-140.79;100.00;63287.88;5043190;28;20591;-55
2022/05/11 10:33:16;;;;;;;4.05;2.72;;;;;;;-140.79;100.00;63287.88;5024806;28;20171;-54
2022/05/11 10:35:52;;;;;;;3.92;2.03;;;;;;;-140.79;100.00;63287.88;5061701;28;20017;-55
2022/05/11 10:38:39;;;;;;;3.78;1.85;;;;;;;-140.79;100.00;63287.88;5061123;28;20101;-55
2022/05/11 10:41:16;;;;;;;3.35;2.10;;;;;;;-140.79;100.00;63287.88;5057181;28;20055;-54
2022/05/11 10:43:50;;;;;;;4.35;1.90;;;;;;;-140.79;100.00;63287.88;5059698;28;20129;-54
2022/05/11 10:46:23;;;;;;;5.07;1.98;;;;;;;-140.79;100.00;63287.88;5057313;28;20422;-54
2022/05/11 10:49:01;;;;;;;6.07;1.67;;;;;;;-140.79;100.00;63287.88;5054124;28;20502;-55
2022/05/11 10:51:38;;;;;;;3.17;2.00;;;;;;;-140.79;100.00;63287.88;5040827;28;20143;-53
2022/05/11 10:54:16;;;;;;;3.13;1.80;;;;;;;-140.79;100.00;63287.88;5039479;28;20051;-54
2022/05/11 10:57:00;;;;;;;3.00;2.00;;;;;;;-140.79;100.00;63287.88;5040744;28;20427;-54
2022/05/11 10:59:45;;;;;;;3.95;2.00;;;;;;;-140.79;100.00;63287.88;5062748;28;20031;-54
2022/05/11 11:02:22;;;;;;;3.53;2.00;;;;;;;-140.79;100.00;63287.88;5037849;28;20032;-51
2022/05/11 11:05:07;;;;;;;4.53;1.88;;;;;;;-140.79;100.00;63287.88;5057488;28;20716;-52
2022/05/11 11:07:57;;;;;;;2.75;1.98;;;;;;;-140.79;100.00;63287.88;5059555;28;20546;-52
2022/05/11 11:10:37;;;;;;;3.03;1.80;;;;;;;-140.79;100.00;63287.88;5045373;28;20479;-52
2022/05/11 11:13:06;;;;;;;2.85;1.65;;;;;;;-140.79;100.00;63287.88;5056675;28;20044;-51
2022/05/11 11:15:33;;;;;;;4.40;2.25;;;;;;;-140.79;100.00;63287.88;5043155;28;20029;-52
2022/05/11 11:17:58;;;;;;;4.55;2.10;;;;;;;-140.79;100.00;63287.88;5022673;28;20081;-52
2022/05/11 11:20:24;;;;;;;5.13;1.90;;;;;;;-140.79;100.00;63287.88;5041571;28;20749;-52
2022/05/11 11:23:13;;;;;;;3.85;2.00;;;;;;;-140.79;100.00;63287.88;5040492;28;20086;-51
2022/05/11 11:25:47;;;;;;;6.15;2.20;;;;;;;-140.79;100.00;63287.88;5044929;28;20085;-53
2022/05/11 11:28:15;;;;;;;5.78;2.35;;;;;;;-140.79;100.00;63287.88;5062178;28;20094;-53
2022/05/11 11:31:01;;;;;;;5.80;2.42;;;;;;;-140.79;100.00;63287.88;5056897;28;20055;-53
2022/05/11 11:33:30;;;;;;;3.92;1.90;;;;;;;-140.79;100.00;63287.88;5051426;28;20048;-53
2022/05/11 11:36:36;;;;;;;5.07;2.45;;;;;;;-140.79;100.00;63287.88;5062441;28;20098;-52
2022/05/11 11:39:07;;;;;;;2.55;2.00;;;;;;;-140.79;100.00;63287.88;5045277;28;20025;-54
2022/05/11 11:42:06;;;;;;;3.92;1.67;;;;;;;-140.79;100.00;63287.88;5062632;28;20086;-53
2022/05/11 11:44:45;;;;;;;3.75;1.70;;;;;;;-140.79;100.00;63287.88;5045987;28;20036;-53
2022/05/11 11:47:27;;;;;;;;;;;;;;;-140.79;100.00;63287.88;5039730;28;20021;-51
2022/05/11 11:49:57;;;;;;;6.55;1.98;;;;;;;-140.79;100.00;63287.88;5056831;28;19923;-53